BAW1HL LGAV-HKJK
Flight info
| Callsign | BAW1HL |
|---|---|
| Flight time | 5h 18m |
| Altitude | 39000 |
| Route | KEA UL617 MIL UJ56 SUD DCT SALUN L604 MEVDA P557 ALKED/N0483F410 P557 NUBAR P309 AVONO/N0483F400 A727 ANTAX/N0482F410 UA727 KAMAS KAMAS1A |
| Aircraft | A35K/H-SDE2E3GHIJ3J4J5LM1ORWXY/LB1D1 |
Departure
| Time | 2026-05-07 16:22 |
|---|---|
| Airport | Athens Eleftherios Venizelos International Airport (LGAV) |
Arrival
| Time | 2026-05-07 21:40 |
|---|---|
| Airport | Jomo Kenyatta International Airport (HKJK) |
| Time | Latitude | Longitude | Altitude | Speed | Heading |
|---|---|---|---|---|---|
| 2026-05-07 14:40 | 37.92951 | 23.94049 | 308 ft | 0 kts | 217° |
| 2026-05-07 14:48 | 37.92952 | 23.94049 | 307 ft | 0 kts | 217° |
| 2026-05-07 15:31 | 37.92951 | 23.94049 | 308 ft | 0 kts | 217° |
| 2026-05-07 16:05 | 37.92959 | 23.94057 | 307 ft | 4 kts | 216° |
| 2026-05-07 16:06 | 37.92981 | 23.94076 | 310 ft | 4 kts | 213° |
| 2026-05-07 16:06 | 37.93002 | 23.94093 | 307 ft | 2 kts | 214° |
| 2026-05-07 16:06 | 37.93010 | 23.94100 | 307 ft | 0 kts | 228° |
| 2026-05-07 16:07 | 37.93023 | 23.94116 | 308 ft | 3 kts | 200° |
| 2026-05-07 16:07 | 37.93039 | 23.94120 | 309 ft | 0 kts | 165° |
| 2026-05-07 16:09 | 37.93037 | 23.94121 | 310 ft | 1 kts | 164° |
| 2026-05-07 16:10 | 37.93011 | 23.94145 | 307 ft | 8 kts | 141° |
| 2026-05-07 16:10 | 37.92972 | 23.94204 | 307 ft | 10 kts | 128° |
| 2026-05-07 16:10 | 37.92948 | 23.94244 | 307 ft | 0 kts | 128° |
| 2026-05-07 16:11 | 37.92931 | 23.94270 | 308 ft | 14 kts | 128° |
| 2026-05-07 16:11 | 37.92890 | 23.94389 | 309 ft | 13 kts | 75° |
| 2026-05-07 16:11 | 37.92944 | 23.94469 | 311 ft | 14 kts | 39° |
| 2026-05-07 16:12 | 37.93046 | 23.94563 | 311 ft | 22 kts | 36° |
| 2026-05-07 16:12 | 37.93175 | 23.94683 | 309 ft | 24 kts | 36° |
| 2026-05-07 16:12 | 37.93323 | 23.94824 | 308 ft | 29 kts | 38° |
| 2026-05-07 16:12 | 37.93484 | 23.94980 | 310 ft | 30 kts | 37° |
| 2026-05-07 16:13 | 37.93654 | 23.95141 | 309 ft | 31 kts | 37° |
| 2026-05-07 16:13 | 37.93832 | 23.95309 | 308 ft | 32 kts | 37° |
| 2026-05-07 16:13 | 37.94015 | 23.95483 | 310 ft | 30 kts | 37° |
| 2026-05-07 16:13 | 37.94165 | 23.95624 | 309 ft | 27 kts | 37° |
| 2026-05-07 16:14 | 37.94278 | 23.95731 | 308 ft | 0 kts | 37° |
| 2026-05-07 16:15 | 37.94310 | 23.95761 | 309 ft | 11 kts | 37° |
| 2026-05-07 16:15 | 37.94364 | 23.95848 | 309 ft | 7 kts | 91° |
| 2026-05-07 16:16 | 37.94550 | 23.96137 | 306 ft | 19 kts | 37° |
| 2026-05-07 16:16 | 37.94624 | 23.96209 | 307 ft | 13 kts | 37° |
| 2026-05-07 16:16 | 37.94700 | 23.96281 | 307 ft | 15 kts | 34° |
| 2026-05-07 16:17 | 37.94808 | 23.96382 | 308 ft | 21 kts | 37° |
| 2026-05-07 16:17 | 37.94928 | 23.96495 | 311 ft | 22 kts | 37° |
| 2026-05-07 16:17 | 37.95053 | 23.96614 | 313 ft | 23 kts | 36° |
| 2026-05-07 16:17 | 37.95140 | 23.96693 | 309 ft | 5 kts | 36° |
| 2026-05-07 16:18 | 37.95172 | 23.96723 | 309 ft | 0 kts | 36° |
| 2026-05-07 16:18 | 37.95180 | 23.96730 | 309 ft | 8 kts | 36° |
| 2026-05-07 16:18 | 37.95245 | 23.96791 | 313 ft | 13 kts | 36° |
| 2026-05-07 16:18 | 37.95323 | 23.96866 | 310 ft | 14 kts | 37° |
| 2026-05-07 16:19 | 37.95353 | 23.96894 | 309 ft | 0 kts | 38° |
| 2026-05-07 16:19 | 37.95376 | 23.96922 | 309 ft | 7 kts | 50° |
| 2026-05-07 16:19 | 37.95383 | 23.96976 | 309 ft | 2 kts | 112° |
| 2026-05-07 16:20 | 37.95369 | 23.96996 | 312 ft | 3 kts | 137° |
| 2026-05-07 16:20 | 37.95363 | 23.97000 | 311 ft | 0 kts | 155° |
| 2026-05-07 16:20 | 37.95359 | 23.97002 | 312 ft | 3 kts | 157° |
| 2026-05-07 16:20 | 37.95309 | 23.97021 | 314 ft | 11 kts | 165° |
| 2026-05-07 16:21 | 37.95214 | 23.97027 | 316 ft | 15 kts | 198° |
| 2026-05-07 16:21 | 37.95129 | 23.96963 | 315 ft | 6 kts | 215° |
| 2026-05-07 16:21 | 37.95128 | 23.96962 | 316 ft | 0 kts | 215° |
| 2026-05-07 16:21 | 37.95096 | 23.96933 | 314 ft | 21 kts | 216° |
| 2026-05-07 16:22 | 37.94770 | 23.96621 | 310 ft | 93 kts | 217° |
| 2026-05-07 16:22 | 37.94092 | 23.95971 | 295 ft | 149 kts | 218° |
| 2026-05-07 16:22 | 37.93167 | 23.95063 | 540 ft | 174 kts | 221° |
| 2026-05-07 16:22 | 37.92246 | 23.94000 | 1035 ft | 188 kts | 223° |
| 2026-05-07 16:23 | 37.91217 | 23.92869 | 1498 ft | 204 kts | 219° |
| 2026-05-07 16:23 | 37.89956 | 23.91904 | 1951 ft | 219 kts | 201° |
| 2026-05-07 16:23 | 37.88468 | 23.91747 | 2802 ft | 216 kts | 169° |
| 2026-05-07 16:23 | 37.87156 | 23.92610 | 3629 ft | 219 kts | 141° |
| 2026-05-07 16:24 | 37.86010 | 23.93926 | 4439 ft | 221 kts | 138° |
| 2026-05-07 16:24 | 37.84910 | 23.95253 | 5191 ft | 223 kts | 137° |
| 2026-05-07 16:24 | 37.83747 | 23.96574 | 5970 ft | 227 kts | 144° |
| 2026-05-07 16:24 | 37.82299 | 23.97510 | 6450 ft | 245 kts | 163° |
| 2026-05-07 16:25 | 37.80562 | 23.98021 | 6924 ft | 265 kts | 172° |
| 2026-05-07 16:25 | 37.78698 | 23.98279 | 7660 ft | 273 kts | 176° |
| 2026-05-07 16:25 | 37.76782 | 23.98410 | 8513 ft | 278 kts | 178° |
| 2026-05-07 16:25 | 37.74830 | 23.98503 | 9380 ft | 283 kts | 178° |
| 2026-05-07 16:26 | 37.72848 | 23.98605 | 10208 ft | 288 kts | 178° |
| 2026-05-07 16:26 | 37.70797 | 23.98734 | 10744 ft | 306 kts | 178° |
| 2026-05-07 16:26 | 37.68625 | 23.98894 | 11094 ft | 327 kts | 178° |
| 2026-05-07 16:26 | 37.66282 | 23.99084 | 11416 ft | 348 kts | 178° |
| 2026-05-07 16:27 | 37.63819 | 23.99298 | 11943 ft | 360 kts | 178° |
| 2026-05-07 16:27 | 37.61301 | 23.99526 | 12665 ft | 365 kts | 178° |
| 2026-05-07 16:27 | 37.58745 | 23.99763 | 13415 ft | 369 kts | 178° |
| 2026-05-07 16:27 | 37.56168 | 24.00009 | 14098 ft | 375 kts | 179° |
| 2026-05-07 16:28 | 37.53548 | 24.00249 | 14866 ft | 379 kts | 179° |
| 2026-05-07 16:28 | 37.50907 | 24.00478 | 15639 ft | 383 kts | 180° |
| 2026-05-07 16:28 | 37.48238 | 24.00704 | 16351 ft | 387 kts | 180° |
| 2026-05-07 16:28 | 37.45540 | 24.00934 | 17052 ft | 390 kts | 180° |
| 2026-05-07 16:29 | 37.42853 | 24.01165 | 17726 ft | 394 kts | 180° |
| 2026-05-07 16:29 | 37.40099 | 24.01403 | 18391 ft | 398 kts | 181° |
| 2026-05-07 16:29 | 37.37322 | 24.01646 | 19050 ft | 402 kts | 180° |
| 2026-05-07 16:29 | 37.34516 | 24.01893 | 19732 ft | 406 kts | 180° |
| 2026-05-07 16:30 | 37.31687 | 24.02142 | 20380 ft | 410 kts | 180° |
| 2026-05-07 16:30 | 37.28825 | 24.02394 | 21017 ft | 415 kts | 180° |
| 2026-05-07 16:30 | 37.25935 | 24.02648 | 21642 ft | 419 kts | 180° |
| 2026-05-07 16:30 | 37.23010 | 24.02905 | 22258 ft | 423 kts | 180° |
| 2026-05-07 16:31 | 37.20050 | 24.03164 | 22827 ft | 428 kts | 180° |
| 2026-05-07 16:31 | 37.17061 | 24.03424 | 23407 ft | 432 kts | 180° |
| 2026-05-07 16:31 | 37.14084 | 24.03683 | 23950 ft | 437 kts | 180° |
| 2026-05-07 16:31 | 37.11036 | 24.03948 | 24504 ft | 441 kts | 180° |
| 2026-05-07 16:32 | 37.07955 | 24.04216 | 25026 ft | 446 kts | 180° |
| 2026-05-07 16:32 | 37.04853 | 24.04486 | 25531 ft | 450 kts | 180° |
| 2026-05-07 16:32 | 37.01716 | 24.04759 | 26032 ft | 454 kts | 180° |
| 2026-05-07 16:32 | 36.98548 | 24.05033 | 26549 ft | 458 kts | 180° |
| 2026-05-07 16:33 | 36.95356 | 24.05308 | 27039 ft | 462 kts | 180° |
| 2026-05-07 16:33 | 36.92136 | 24.05583 | 27514 ft | 466 kts | 181° |
| 2026-05-07 16:33 | 36.88938 | 24.05862 | 27895 ft | 470 kts | 181° |
| 2026-05-07 16:33 | 36.85660 | 24.06146 | 28330 ft | 474 kts | 181° |
| 2026-05-07 16:34 | 36.82359 | 24.06433 | 28814 ft | 477 kts | 181° |
| 2026-05-07 16:34 | 36.79043 | 24.06720 | 29229 ft | 480 kts | 181° |
| 2026-05-07 16:34 | 36.75691 | 24.07010 | 29649 ft | 483 kts | 181° |
| 2026-05-07 16:34 | 36.72323 | 24.07300 | 30036 ft | 487 kts | 182° |
| 2026-05-07 16:35 | 36.68927 | 24.07594 | 30401 ft | 491 kts | 182° |
| 2026-05-07 16:35 | 36.65506 | 24.07889 | 30708 ft | 496 kts | 182° |
| 2026-05-07 16:35 | 36.62045 | 24.08185 | 30993 ft | 501 kts | 183° |
| 2026-05-07 16:35 | 36.58545 | 24.08485 | 31310 ft | 506 kts | 183° |
| 2026-05-07 16:36 | 36.55016 | 24.08789 | 31568 ft | 511 kts | 183° |
| 2026-05-07 16:36 | 36.51457 | 24.09091 | 31829 ft | 515 kts | 184° |
| 2026-05-07 16:36 | 36.47910 | 24.09395 | 32114 ft | 520 kts | 184° |
| 2026-05-07 16:36 | 36.44289 | 24.09705 | 32334 ft | 525 kts | 184° |
| 2026-05-07 16:37 | 36.40624 | 24.10014 | 32576 ft | 529 kts | 184° |
| 2026-05-07 16:37 | 36.36935 | 24.10324 | 32814 ft | 533 kts | 184° |
| 2026-05-07 16:37 | 36.33215 | 24.10641 | 33028 ft | 538 kts | 184° |
| 2026-05-07 16:37 | 36.29474 | 24.10961 | 33276 ft | 542 kts | 185° |
| 2026-05-07 16:38 | 36.25702 | 24.11287 | 33507 ft | 545 kts | 185° |
| 2026-05-07 16:38 | 36.21904 | 24.11611 | 33755 ft | 549 kts | 185° |
| 2026-05-07 16:38 | 36.18076 | 24.11935 | 33958 ft | 554 kts | 185° |
| 2026-05-07 16:38 | 36.14215 | 24.12261 | 34127 ft | 558 kts | 185° |
| 2026-05-07 16:39 | 36.10384 | 24.12588 | 34356 ft | 560 kts | 185° |
| 2026-05-07 16:39 | 36.06496 | 24.12921 | 34619 ft | 561 kts | 185° |
| 2026-05-07 16:39 | 36.02601 | 24.13253 | 34852 ft | 562 kts | 185° |
| 2026-05-07 16:39 | 35.98691 | 24.13588 | 35033 ft | 564 kts | 185° |
| 2026-05-07 16:40 | 35.94767 | 24.13921 | 35174 ft | 567 kts | 185° |
| 2026-05-07 16:40 | 35.90832 | 24.14255 | 35330 ft | 568 kts | 185° |
| 2026-05-07 16:40 | 35.86882 | 24.14588 | 35498 ft | 568 kts | 185° |
| 2026-05-07 16:40 | 35.82987 | 24.14914 | 35639 ft | 569 kts | 185° |
| 2026-05-07 16:41 | 35.79039 | 24.15243 | 35709 ft | 569 kts | 185° |
| 2026-05-07 16:41 | 35.71122 | 24.15909 | 35844 ft | 571 kts | 185° |
| 2026-05-07 16:42 | 35.63193 | 24.16579 | 35940 ft | 571 kts | 185° |
| 2026-05-07 16:42 | 35.55264 | 24.17247 | 35985 ft | 572 kts | 185° |
| 2026-05-07 16:43 | 35.47300 | 24.18082 | 36003 ft | 577 kts | 180° |
| 2026-05-07 16:43 | 35.39390 | 24.19617 | 36024 ft | 581 kts | 178° |
| 2026-05-07 16:44 | 35.31430 | 24.21267 | 36055 ft | 580 kts | 178° |
| 2026-05-07 16:44 | 35.23471 | 24.22799 | 36068 ft | 577 kts | 179° |
| 2026-05-07 16:45 | 35.15541 | 24.24249 | 36047 ft | 577 kts | 179° |
| 2026-05-07 16:45 | 35.07584 | 24.25678 | 36061 ft | 578 kts | 179° |
| 2026-05-07 16:46 | 34.99688 | 24.27110 | 36066 ft | 578 kts | 179° |
| 2026-05-07 16:46 | 34.91720 | 24.28555 | 36069 ft | 579 kts | 179° |
| 2026-05-07 16:47 | 34.83746 | 24.30003 | 36067 ft | 579 kts | 179° |
| 2026-05-07 16:47 | 34.75770 | 24.31444 | 36069 ft | 579 kts | 179° |
| 2026-05-07 16:48 | 34.67796 | 24.32880 | 36069 ft | 579 kts | 179° |
| 2026-05-07 16:48 | 34.59873 | 24.34303 | 36062 ft | 580 kts | 179° |
| 2026-05-07 16:49 | 34.51888 | 24.35741 | 36066 ft | 580 kts | 179° |
| 2026-05-07 16:49 | 34.43893 | 24.37182 | 36067 ft | 581 kts | 179° |
| 2026-05-07 16:50 | 34.35952 | 24.38600 | 36066 ft | 581 kts | 179° |
| 2026-05-07 16:50 | 34.27962 | 24.40027 | 36068 ft | 580 kts | 179° |
| 2026-05-07 16:51 | 34.19966 | 24.41447 | 36076 ft | 581 kts | 179° |
| 2026-05-07 16:51 | 34.11965 | 24.42864 | 36072 ft | 581 kts | 179° |
| 2026-05-07 16:52 | 34.04020 | 24.44294 | 36065 ft | 583 kts | 177° |
| 2026-05-07 16:52 | 34.00061 | 24.45500 | 36075 ft | 594 kts | 166° |
| 2026-05-07 16:52 | 33.96250 | 24.47489 | 36079 ft | 599 kts | 158° |
| 2026-05-07 16:53 | 33.88856 | 24.52177 | 36079 ft | 601 kts | 154° |
| 2026-05-07 16:53 | 33.81561 | 24.57099 | 36073 ft | 602 kts | 154° |
| 2026-05-07 16:54 | 33.74296 | 24.61954 | 36091 ft | 601 kts | 154° |
| 2026-05-07 16:54 | 33.66975 | 24.66782 | 36096 ft | 600 kts | 155° |
| 2026-05-07 16:55 | 33.59644 | 24.71578 | 36098 ft | 600 kts | 154° |
| 2026-05-07 16:55 | 33.52308 | 24.76375 | 36097 ft | 601 kts | 154° |
| 2026-05-07 16:56 | 33.44969 | 24.81168 | 36097 ft | 601 kts | 154° |
| 2026-05-07 16:56 | 33.34018 | 24.88301 | 36097 ft | 600 kts | 154° |
| 2026-05-07 16:57 | 33.26684 | 24.93068 | 36099 ft | 600 kts | 155° |
| 2026-05-07 16:57 | 33.19351 | 24.97828 | 36098 ft | 600 kts | 154° |
| 2026-05-07 16:58 | 33.12010 | 25.02588 | 36100 ft | 600 kts | 154° |
| 2026-05-07 16:58 | 33.04723 | 25.07297 | 36114 ft | 600 kts | 154° |
| 2026-05-07 16:59 | 32.97383 | 25.12029 | 36116 ft | 600 kts | 154° |
| 2026-05-07 16:59 | 32.90035 | 25.16756 | 36109 ft | 600 kts | 154° |
| 2026-05-07 17:00 | 32.82697 | 25.21470 | 36109 ft | 599 kts | 154° |
| 2026-05-07 17:00 | 32.75357 | 25.26179 | 36114 ft | 599 kts | 154° |
| 2026-05-07 17:01 | 32.68018 | 25.30876 | 36115 ft | 599 kts | 154° |
| 2026-05-07 17:01 | 32.60723 | 25.35535 | 36115 ft | 600 kts | 154° |
| 2026-05-07 17:02 | 32.53381 | 25.40219 | 36117 ft | 599 kts | 154° |
| 2026-05-07 17:02 | 32.46028 | 25.44902 | 36113 ft | 600 kts | 154° |
| 2026-05-07 17:03 | 32.38677 | 25.49574 | 36123 ft | 600 kts | 154° |
| 2026-05-07 17:03 | 32.31322 | 25.54238 | 36115 ft | 600 kts | 154° |
| 2026-05-07 17:04 | 32.24015 | 25.58863 | 36116 ft | 600 kts | 154° |
| 2026-05-07 17:04 | 32.16644 | 25.63522 | 36114 ft | 601 kts | 154° |
| 2026-05-07 17:05 | 32.09275 | 25.68169 | 36115 ft | 601 kts | 154° |
| 2026-05-07 17:05 | 32.01895 | 25.72815 | 36119 ft | 601 kts | 154° |
| 2026-05-07 17:06 | 31.94512 | 25.77456 | 36124 ft | 601 kts | 154° |
| 2026-05-07 17:06 | 31.87194 | 25.82046 | 36129 ft | 600 kts | 154° |
| 2026-05-07 17:07 | 31.79813 | 25.86670 | 36128 ft | 600 kts | 154° |
| 2026-05-07 17:07 | 31.72441 | 25.91274 | 36124 ft | 600 kts | 154° |
| 2026-05-07 17:08 | 31.65064 | 25.95874 | 36152 ft | 600 kts | 154° |
| 2026-05-07 17:08 | 31.57779 | 26.00511 | 36149 ft | 601 kts | 149° |
| 2026-05-07 17:09 | 31.50797 | 26.05885 | 36160 ft | 601 kts | 147° |
| 2026-05-07 17:09 | 31.43871 | 26.11389 | 36163 ft | 601 kts | 147° |
| 2026-05-07 17:10 | 31.36960 | 26.16902 | 36168 ft | 601 kts | 147° |
| 2026-05-07 17:10 | 31.30087 | 26.22355 | 36178 ft | 600 kts | 147° |
| 2026-05-07 17:11 | 31.23213 | 26.27790 | 36727 ft | 588 kts | 147° |
| 2026-05-07 17:11 | 31.19837 | 26.30455 | 37146 ft | 583 kts | 147° |
| 2026-05-07 17:11 | 31.16497 | 26.33087 | 37168 ft | 575 kts | 147° |
| 2026-05-07 17:12 | 31.09923 | 26.38263 | 37156 ft | 568 kts | 147° |
| 2026-05-07 17:12 | 31.03376 | 26.43409 | 37155 ft | 566 kts | 147° |
| 2026-05-07 17:13 | 30.96891 | 26.48495 | 37157 ft | 566 kts | 147° |
| 2026-05-07 17:13 | 30.90370 | 26.53605 | 37159 ft | 565 kts | 147° |
| 2026-05-07 17:14 | 30.83853 | 26.58706 | 37156 ft | 564 kts | 147° |
| 2026-05-07 17:14 | 30.77341 | 26.63792 | 37154 ft | 563 kts | 147° |
| 2026-05-07 17:15 | 30.70878 | 26.68830 | 37156 ft | 563 kts | 147° |
| 2026-05-07 17:15 | 30.64338 | 26.73922 | 37146 ft | 562 kts | 147° |
| 2026-05-07 17:16 | 30.57883 | 26.78938 | 37146 ft | 562 kts | 147° |
| 2026-05-07 17:16 | 30.51385 | 26.83980 | 37146 ft | 561 kts | 147° |
| 2026-05-07 17:17 | 30.44891 | 26.89010 | 37147 ft | 561 kts | 147° |
| 2026-05-07 17:17 | 30.38398 | 26.94033 | 37148 ft | 561 kts | 147° |
| 2026-05-07 17:18 | 30.31900 | 26.99047 | 37146 ft | 561 kts | 147° |
| 2026-05-07 17:18 | 30.25447 | 27.04021 | 37147 ft | 561 kts | 146° |
| 2026-05-07 17:19 | 30.18950 | 27.09022 | 37147 ft | 561 kts | 146° |
| 2026-05-07 17:19 | 30.12450 | 27.14017 | 37147 ft | 561 kts | 147° |
| 2026-05-07 17:20 | 30.05990 | 27.18974 | 37146 ft | 561 kts | 146° |
| 2026-05-07 17:20 | 29.99475 | 27.23963 | 37145 ft | 562 kts | 146° |
| 2026-05-07 17:21 | 29.92979 | 27.28927 | 37140 ft | 559 kts | 146° |
| 2026-05-07 17:21 | 29.86513 | 27.33864 | 37137 ft | 557 kts | 146° |
| 2026-05-07 17:22 | 29.80092 | 27.38759 | 37136 ft | 557 kts | 146° |
| 2026-05-07 17:22 | 29.73628 | 27.43682 | 37139 ft | 558 kts | 146° |
| 2026-05-07 17:23 | 29.67154 | 27.48604 | 37136 ft | 558 kts | 146° |
| 2026-05-07 17:23 | 29.60738 | 27.53471 | 37138 ft | 558 kts | 146° |
| 2026-05-07 17:24 | 29.54258 | 27.58376 | 37137 ft | 558 kts | 146° |
| 2026-05-07 17:24 | 29.47817 | 27.63245 | 37137 ft | 558 kts | 146° |
| 2026-05-07 17:25 | 29.41340 | 27.68140 | 37138 ft | 558 kts | 146° |
| 2026-05-07 17:25 | 29.34857 | 27.73028 | 37131 ft | 557 kts | 147° |
| 2026-05-07 17:26 | 29.28377 | 27.77907 | 37126 ft | 557 kts | 147° |
| 2026-05-07 17:26 | 29.21907 | 27.82769 | 37128 ft | 556 kts | 147° |
| 2026-05-07 17:27 | 29.15480 | 27.87593 | 37128 ft | 556 kts | 147° |
| 2026-05-07 17:27 | 29.09018 | 27.92430 | 37128 ft | 555 kts | 146° |
| 2026-05-07 17:28 | 29.02567 | 27.97257 | 37126 ft | 554 kts | 146° |
| 2026-05-07 17:28 | 28.96117 | 28.02079 | 37127 ft | 554 kts | 146° |
| 2026-05-07 17:29 | 28.89708 | 28.06860 | 37129 ft | 553 kts | 146° |
| 2026-05-07 17:29 | 28.83269 | 28.11659 | 37128 ft | 553 kts | 146° |
| 2026-05-07 17:30 | 28.76872 | 28.16508 | 37124 ft | 552 kts | 146° |
| 2026-05-07 17:30 | 28.70493 | 28.21371 | 37118 ft | 552 kts | 146° |
| 2026-05-07 17:31 | 28.64102 | 28.26224 | 37120 ft | 552 kts | 146° |
| 2026-05-07 17:31 | 28.57758 | 28.31026 | 37119 ft | 551 kts | 146° |
| 2026-05-07 17:32 | 28.51369 | 28.35848 | 37117 ft | 551 kts | 146° |
| 2026-05-07 17:32 | 28.46057 | 28.39852 | 37119 ft | 551 kts | 146° |
| 2026-05-07 17:33 | 28.38601 | 28.45467 | 37119 ft | 550 kts | 146° |
| 2026-05-07 17:33 | 28.32224 | 28.50262 | 37085 ft | 550 kts | 146° |
| 2026-05-07 17:34 | 28.25884 | 28.55023 | 37081 ft | 550 kts | 146° |
| 2026-05-07 17:34 | 28.19499 | 28.59809 | 37082 ft | 550 kts | 146° |
| 2026-05-07 17:35 | 28.13117 | 28.64585 | 37082 ft | 550 kts | 146° |
| 2026-05-07 17:35 | 28.06769 | 28.69329 | 37082 ft | 550 kts | 146° |
| 2026-05-07 17:36 | 28.00380 | 28.74097 | 37083 ft | 550 kts | 146° |
| 2026-05-07 17:36 | 27.93990 | 28.78862 | 37081 ft | 549 kts | 147° |
| 2026-05-07 17:37 | 27.87620 | 28.83604 | 37082 ft | 548 kts | 147° |
| 2026-05-07 17:37 | 27.81246 | 28.88341 | 37081 ft | 549 kts | 147° |
| 2026-05-07 17:38 | 27.74913 | 28.93042 | 37082 ft | 548 kts | 147° |
| 2026-05-07 17:38 | 27.68534 | 28.97769 | 37081 ft | 548 kts | 147° |
| 2026-05-07 17:39 | 27.62160 | 29.02486 | 37073 ft | 548 kts | 147° |
| 2026-05-07 17:39 | 27.55779 | 29.07202 | 37073 ft | 548 kts | 147° |
| 2026-05-07 17:40 | 27.49442 | 29.11877 | 37072 ft | 548 kts | 147° |
| 2026-05-07 17:40 | 27.43071 | 29.16573 | 37074 ft | 548 kts | 148° |
| 2026-05-07 17:41 | 27.36709 | 29.21247 | 37071 ft | 545 kts | 147° |
| 2026-05-07 17:41 | 27.30325 | 29.25951 | 37074 ft | 548 kts | 147° |
| 2026-05-07 17:42 | 27.23936 | 29.30633 | 37075 ft | 549 kts | 148° |
| 2026-05-07 17:42 | 27.17543 | 29.35330 | 37074 ft | 549 kts | 147° |
| 2026-05-07 17:43 | 27.11163 | 29.39993 | 37071 ft | 549 kts | 148° |
| 2026-05-07 17:43 | 27.04779 | 29.44655 | 37073 ft | 548 kts | 148° |
| 2026-05-07 17:44 | 26.98348 | 29.49328 | 37029 ft | 552 kts | 148° |
| 2026-05-07 17:44 | 26.91917 | 29.54040 | 37027 ft | 553 kts | 148° |
| 2026-05-07 17:45 | 26.85493 | 29.58747 | 37026 ft | 550 kts | 148° |
| 2026-05-07 17:45 | 26.79120 | 29.63373 | 37026 ft | 550 kts | 148° |
| 2026-05-07 17:46 | 26.72669 | 29.67971 | 37028 ft | 550 kts | 149° |
| 2026-05-07 17:46 | 26.66223 | 29.72606 | 37029 ft | 551 kts | 148° |
| 2026-05-07 17:47 | 26.59808 | 29.77343 | 37017 ft | 554 kts | 148° |
| 2026-05-07 17:47 | 26.53410 | 29.82045 | 37020 ft | 555 kts | 148° |
| 2026-05-07 17:48 | 26.46939 | 29.86767 | 37018 ft | 557 kts | 148° |
| 2026-05-07 17:48 | 26.40437 | 29.91509 | 37019 ft | 564 kts | 148° |
| 2026-05-07 17:49 | 26.33837 | 29.96315 | 37018 ft | 567 kts | 148° |
| 2026-05-07 17:49 | 26.27222 | 30.01128 | 37046 ft | 567 kts | 149° |
| 2026-05-07 17:50 | 26.20659 | 30.05883 | 37047 ft | 567 kts | 149° |
| 2026-05-07 17:50 | 26.13995 | 30.10587 | 37045 ft | 567 kts | 150° |
| 2026-05-07 17:51 | 26.07319 | 30.15267 | 37045 ft | 567 kts | 150° |
| 2026-05-07 17:51 | 26.00646 | 30.19960 | 37036 ft | 567 kts | 150° |
| 2026-05-07 17:52 | 25.94025 | 30.24624 | 37032 ft | 567 kts | 150° |
| 2026-05-07 17:52 | 25.87364 | 30.29313 | 37032 ft | 567 kts | 150° |
| 2026-05-07 17:53 | 25.80599 | 30.33765 | 37030 ft | 562 kts | 159° |
| 2026-05-07 17:53 | 25.73311 | 30.36738 | 37025 ft | 556 kts | 166° |
| 2026-05-07 17:54 | 25.65945 | 30.39328 | 37027 ft | 555 kts | 167° |
| 2026-05-07 17:54 | 25.58628 | 30.41843 | 36984 ft | 554 kts | 167° |
| 2026-05-07 17:55 | 25.51279 | 30.44390 | 36901 ft | 553 kts | 167° |
| 2026-05-07 17:55 | 25.43948 | 30.46955 | 36897 ft | 552 kts | 166° |
| 2026-05-07 17:56 | 25.36638 | 30.49528 | 36893 ft | 551 kts | 167° |
| 2026-05-07 17:56 | 25.29333 | 30.52073 | 36896 ft | 549 kts | 167° |
| 2026-05-07 17:57 | 25.23278 | 30.54174 | 36895 ft | 548 kts | 167° |
| 2026-05-07 17:57 | 25.14837 | 30.57105 | 36901 ft | 547 kts | 167° |
| 2026-05-07 17:58 | 25.07584 | 30.59611 | 36908 ft | 546 kts | 167° |
| 2026-05-07 17:58 | 25.00345 | 30.62112 | 36901 ft | 545 kts | 167° |
| 2026-05-07 17:59 | 24.93118 | 30.64610 | 36909 ft | 544 kts | 167° |
| 2026-05-07 17:59 | 24.85953 | 30.67082 | 36911 ft | 543 kts | 167° |
| 2026-05-07 18:00 | 24.78754 | 30.69563 | 36919 ft | 542 kts | 167° |
| 2026-05-07 18:00 | 24.71555 | 30.72042 | 36904 ft | 542 kts | 167° |
| 2026-05-07 18:01 | 24.64408 | 30.74500 | 36901 ft | 541 kts | 167° |
| 2026-05-07 18:01 | 24.57226 | 30.76968 | 36907 ft | 541 kts | 167° |
| 2026-05-07 18:02 | 24.46462 | 30.80660 | 36904 ft | 540 kts | 167° |
| 2026-05-07 18:03 | 24.39290 | 30.83117 | 36908 ft | 540 kts | 167° |
| 2026-05-07 18:03 | 24.32116 | 30.85571 | 36908 ft | 539 kts | 168° |
| 2026-05-07 18:04 | 24.24997 | 30.88007 | 36908 ft | 539 kts | 167° |
| 2026-05-07 18:04 | 24.17840 | 30.90449 | 36904 ft | 539 kts | 167° |
| 2026-05-07 18:05 | 24.10693 | 30.92884 | 36908 ft | 538 kts | 167° |
| 2026-05-07 18:05 | 24.03540 | 30.95317 | 36930 ft | 538 kts | 167° |
| 2026-05-07 18:06 | 23.96396 | 30.97745 | 36935 ft | 537 kts | 167° |
| 2026-05-07 18:06 | 23.89293 | 31.00161 | 36929 ft | 533 kts | 168° |
| 2026-05-07 18:07 | 23.82263 | 31.02549 | 36930 ft | 532 kts | 168° |
| 2026-05-07 18:07 | 23.75197 | 31.04943 | 36944 ft | 532 kts | 168° |
| 2026-05-07 18:08 | 23.68130 | 31.07334 | 36943 ft | 531 kts | 168° |
| 2026-05-07 18:08 | 23.61075 | 31.09719 | 36942 ft | 531 kts | 168° |
| 2026-05-07 18:09 | 23.54064 | 31.12086 | 36933 ft | 531 kts | 168° |
| 2026-05-07 18:09 | 23.47007 | 31.14468 | 36934 ft | 531 kts | 168° |
| 2026-05-07 18:10 | 23.39956 | 31.16844 | 36934 ft | 530 kts | 168° |
| 2026-05-07 18:10 | 23.32906 | 31.19217 | 36934 ft | 530 kts | 168° |
| 2026-05-07 18:11 | 23.25916 | 31.21565 | 36934 ft | 529 kts | 168° |
| 2026-05-07 18:11 | 23.18893 | 31.23925 | 36934 ft | 528 kts | 168° |
| 2026-05-07 18:12 | 23.11885 | 31.26279 | 36934 ft | 527 kts | 168° |
| 2026-05-07 18:12 | 23.04881 | 31.28625 | 36934 ft | 526 kts | 168° |
| 2026-05-07 18:13 | 22.97893 | 31.30965 | 36934 ft | 525 kts | 168° |
| 2026-05-07 18:13 | 22.90965 | 31.33284 | 36933 ft | 524 kts | 168° |
| 2026-05-07 18:14 | 22.84008 | 31.35608 | 36934 ft | 523 kts | 168° |
| 2026-05-07 18:14 | 22.77063 | 31.37926 | 36935 ft | 522 kts | 167° |
| 2026-05-07 18:15 | 22.70125 | 31.40241 | 36934 ft | 521 kts | 167° |
| 2026-05-07 18:15 | 22.63250 | 31.42530 | 36933 ft | 520 kts | 168° |
| 2026-05-07 18:16 | 22.56340 | 31.44831 | 36933 ft | 519 kts | 167° |
| 2026-05-07 18:16 | 22.49448 | 31.47124 | 36933 ft | 518 kts | 167° |
| 2026-05-07 18:17 | 22.42575 | 31.49407 | 36933 ft | 516 kts | 168° |
| 2026-05-07 18:17 | 22.35715 | 31.51683 | 36934 ft | 515 kts | 168° |
| 2026-05-07 18:18 | 22.28910 | 31.53934 | 36934 ft | 514 kts | 168° |
| 2026-05-07 18:18 | 22.22078 | 31.56198 | 36934 ft | 513 kts | 168° |
| 2026-05-07 18:19 | 22.15261 | 31.58455 | 36934 ft | 512 kts | 168° |
| 2026-05-07 18:19 | 22.08443 | 31.60708 | 36942 ft | 512 kts | 168° |
| 2026-05-07 18:20 | 22.01642 | 31.62950 | 36938 ft | 511 kts | 168° |
| 2026-05-07 18:20 | 21.95930 | 31.64429 | 36933 ft | 507 kts | 172° |
| 2026-05-07 18:21 | 21.87935 | 31.66274 | 36933 ft | 505 kts | 173° |
| 2026-05-07 18:21 | 21.81067 | 31.67825 | 36934 ft | 504 kts | 173° |
| 2026-05-07 18:22 | 21.75355 | 31.69120 | 36933 ft | 504 kts | 173° |
| 2026-05-07 18:22 | 21.68486 | 31.70681 | 36934 ft | 504 kts | 173° |
| 2026-05-07 18:23 | 21.61620 | 31.72242 | 36933 ft | 505 kts | 173° |
| 2026-05-07 18:23 | 21.54752 | 31.73803 | 36933 ft | 504 kts | 173° |
| 2026-05-07 18:24 | 21.47897 | 31.75360 | 36934 ft | 503 kts | 173° |
| 2026-05-07 18:24 | 21.41088 | 31.76905 | 36934 ft | 503 kts | 173° |
| 2026-05-07 18:25 | 21.34245 | 31.78456 | 36935 ft | 502 kts | 173° |
| 2026-05-07 18:25 | 21.27410 | 31.80001 | 36936 ft | 501 kts | 173° |
| 2026-05-07 18:26 | 21.20592 | 31.81542 | 36933 ft | 500 kts | 173° |
| 2026-05-07 18:26 | 21.13787 | 31.83079 | 36933 ft | 499 kts | 173° |
| 2026-05-07 18:27 | 21.06993 | 31.84612 | 36934 ft | 498 kts | 173° |
| 2026-05-07 18:27 | 21.00268 | 31.86128 | 36934 ft | 497 kts | 173° |
| 2026-05-07 18:28 | 20.93509 | 31.87652 | 36934 ft | 495 kts | 173° |
| 2026-05-07 18:28 | 20.86779 | 31.89166 | 36934 ft | 494 kts | 173° |
| 2026-05-07 18:29 | 20.80063 | 31.90676 | 36933 ft | 492 kts | 173° |
| 2026-05-07 18:29 | 20.73409 | 31.92171 | 36934 ft | 491 kts | 173° |
| 2026-05-07 18:30 | 20.66734 | 31.93668 | 36935 ft | 489 kts | 174° |
| 2026-05-07 18:30 | 20.60073 | 31.95160 | 36943 ft | 488 kts | 174° |
| 2026-05-07 18:31 | 20.53442 | 31.96647 | 36938 ft | 487 kts | 174° |
| 2026-05-07 18:31 | 20.46866 | 31.98118 | 36934 ft | 485 kts | 174° |
| 2026-05-07 18:32 | 20.40265 | 31.99595 | 36935 ft | 484 kts | 174° |
| 2026-05-07 18:32 | 20.33680 | 32.01068 | 36934 ft | 482 kts | 174° |
| 2026-05-07 18:33 | 20.27123 | 32.02532 | 36934 ft | 481 kts | 174° |
| 2026-05-07 18:33 | 20.20618 | 32.03982 | 36944 ft | 481 kts | 174° |
| 2026-05-07 18:34 | 20.14072 | 32.05443 | 36943 ft | 481 kts | 174° |
| 2026-05-07 18:34 | 20.07528 | 32.06902 | 36943 ft | 481 kts | 174° |
| 2026-05-07 18:35 | 20.00972 | 32.08356 | 36943 ft | 481 kts | 174° |
| 2026-05-07 18:35 | 19.94468 | 32.09803 | 36943 ft | 481 kts | 174° |
| 2026-05-07 18:36 | 19.87925 | 32.11253 | 36943 ft | 481 kts | 174° |
| 2026-05-07 18:36 | 19.81374 | 32.12707 | 36943 ft | 480 kts | 174° |
| 2026-05-07 18:37 | 19.74834 | 32.14157 | 36943 ft | 481 kts | 174° |
| 2026-05-07 18:37 | 19.68286 | 32.15607 | 36943 ft | 480 kts | 174° |
| 2026-05-07 18:38 | 19.61801 | 32.17042 | 36943 ft | 479 kts | 174° |
| 2026-05-07 18:38 | 19.55269 | 32.18486 | 36943 ft | 479 kts | 174° |
| 2026-05-07 18:39 | 19.48743 | 32.19929 | 36943 ft | 479 kts | 174° |
| 2026-05-07 18:39 | 19.42220 | 32.21373 | 36943 ft | 479 kts | 174° |
| 2026-05-07 18:40 | 19.35747 | 32.22801 | 36943 ft | 478 kts | 174° |
| 2026-05-07 18:40 | 19.29237 | 32.24234 | 36943 ft | 477 kts | 174° |
| 2026-05-07 18:41 | 19.22724 | 32.25668 | 36953 ft | 478 kts | 174° |
| 2026-05-07 18:41 | 19.16225 | 32.27100 | 36952 ft | 476 kts | 174° |
| 2026-05-07 18:42 | 19.09780 | 32.28516 | 36952 ft | 476 kts | 174° |
| 2026-05-07 18:42 | 19.03292 | 32.29941 | 36953 ft | 476 kts | 174° |
| 2026-05-07 18:43 | 18.96814 | 32.31363 | 36953 ft | 476 kts | 174° |
| 2026-05-07 18:43 | 18.90331 | 32.32782 | 36952 ft | 476 kts | 174° |
| 2026-05-07 18:44 | 18.83850 | 32.34202 | 36953 ft | 476 kts | 174° |
| 2026-05-07 18:44 | 18.77412 | 32.35613 | 36953 ft | 475 kts | 174° |
| 2026-05-07 18:45 | 18.70937 | 32.37032 | 36953 ft | 475 kts | 174° |
| 2026-05-07 18:45 | 18.64461 | 32.38448 | 36952 ft | 475 kts | 174° |
| 2026-05-07 18:46 | 18.57986 | 32.39865 | 36952 ft | 475 kts | 174° |
| 2026-05-07 18:46 | 18.51563 | 32.41270 | 36952 ft | 475 kts | 174° |
| 2026-05-07 18:47 | 18.45091 | 32.42681 | 36943 ft | 475 kts | 174° |
| 2026-05-07 18:47 | 18.38614 | 32.44095 | 36913 ft | 475 kts | 174° |
| 2026-05-07 18:48 | 18.32142 | 32.45503 | 36920 ft | 475 kts | 174° |
| 2026-05-07 18:48 | 18.25671 | 32.46908 | 36920 ft | 475 kts | 174° |
| 2026-05-07 18:49 | 18.19195 | 32.48316 | 36915 ft | 475 kts | 174° |
| 2026-05-07 18:49 | 18.12763 | 32.49716 | 36909 ft | 475 kts | 173° |
| 2026-05-07 18:50 | 18.06283 | 32.51126 | 36916 ft | 476 kts | 173° |
| 2026-05-07 18:50 | 17.99798 | 32.52533 | 36911 ft | 476 kts | 173° |
| 2026-05-07 18:51 | 17.93314 | 32.53939 | 36912 ft | 476 kts | 173° |
| 2026-05-07 18:51 | 17.86871 | 32.55336 | 36911 ft | 476 kts | 173° |
| 2026-05-07 18:52 | 17.80396 | 32.56739 | 36914 ft | 475 kts | 173° |
| 2026-05-07 18:52 | 17.73918 | 32.58139 | 36906 ft | 475 kts | 173° |
| 2026-05-07 18:53 | 17.67416 | 32.59545 | 36906 ft | 480 kts | 173° |
| 2026-05-07 18:53 | 17.60853 | 32.60961 | 36907 ft | 483 kts | 173° |
| 2026-05-07 18:54 | 17.54272 | 32.62382 | 36915 ft | 483 kts | 173° |
| 2026-05-07 18:54 | 17.47735 | 32.63793 | 36912 ft | 483 kts | 173° |
| 2026-05-07 18:55 | 17.41152 | 32.65210 | 36914 ft | 483 kts | 173° |
| 2026-05-07 18:55 | 17.34571 | 32.66630 | 36904 ft | 483 kts | 173° |
| 2026-05-07 18:56 | 17.27993 | 32.68046 | 36904 ft | 483 kts | 173° |
| 2026-05-07 18:56 | 17.21417 | 32.69460 | 36904 ft | 482 kts | 173° |
| 2026-05-07 18:57 | 17.14839 | 32.70869 | 36901 ft | 483 kts | 173° |
| 2026-05-07 18:57 | 17.08305 | 32.72265 | 36911 ft | 482 kts | 173° |
| 2026-05-07 18:58 | 17.01736 | 32.73667 | 36974 ft | 482 kts | 173° |
| 2026-05-07 18:58 | 16.95159 | 32.75070 | 36981 ft | 483 kts | 173° |
| 2026-05-07 18:59 | 16.88574 | 32.76477 | 36978 ft | 483 kts | 173° |
| 2026-05-07 18:59 | 16.81999 | 32.77877 | 36963 ft | 483 kts | 173° |
| 2026-05-07 19:00 | 16.75416 | 32.79279 | 36962 ft | 483 kts | 173° |
| 2026-05-07 19:00 | 16.68870 | 32.80674 | 36961 ft | 483 kts | 173° |
| 2026-05-07 19:01 | 16.62280 | 32.82075 | 36962 ft | 483 kts | 173° |
| 2026-05-07 19:01 | 16.55687 | 32.83476 | 36971 ft | 483 kts | 173° |
| 2026-05-07 19:02 | 16.49094 | 32.84807 | 36971 ft | 482 kts | 175° |
| 2026-05-07 19:02 | 16.42471 | 32.85811 | 36971 ft | 481 kts | 177° |
| 2026-05-07 19:03 | 16.35866 | 32.86760 | 36969 ft | 476 kts | 177° |
| 2026-05-07 19:03 | 16.29332 | 32.87751 | 36971 ft | 473 kts | 176° |
| 2026-05-07 19:04 | 16.22819 | 32.88764 | 36998 ft | 473 kts | 176° |
| 2026-05-07 19:04 | 16.16351 | 32.89773 | 36999 ft | 473 kts | 176° |
| 2026-05-07 19:05 | 16.09841 | 32.90790 | 36999 ft | 473 kts | 176° |
| 2026-05-07 19:05 | 16.03341 | 32.91805 | 36999 ft | 473 kts | 176° |
| 2026-05-07 19:06 | 15.96836 | 32.92820 | 37007 ft | 473 kts | 176° |
| 2026-05-07 19:06 | 15.87076 | 32.94340 | 37009 ft | 476 kts | 176° |
| 2026-05-07 19:07 | 15.80526 | 32.95360 | 37008 ft | 476 kts | 176° |
| 2026-05-07 19:07 | 15.73970 | 32.96379 | 37008 ft | 476 kts | 176° |
| 2026-05-07 19:08 | 15.67424 | 32.97398 | 37015 ft | 476 kts | 176° |
| 2026-05-07 19:08 | 15.60868 | 32.98417 | 37017 ft | 476 kts | 176° |
| 2026-05-07 19:09 | 15.54360 | 32.99424 | 37017 ft | 476 kts | 176° |
| 2026-05-07 19:09 | 15.47813 | 33.00440 | 37017 ft | 476 kts | 176° |
| 2026-05-07 19:10 | 15.41260 | 33.01458 | 37017 ft | 477 kts | 176° |
| 2026-05-07 19:10 | 15.34696 | 33.02477 | 37024 ft | 477 kts | 176° |
| 2026-05-07 19:11 | 15.28180 | 33.03483 | 37026 ft | 477 kts | 176° |
| 2026-05-07 19:11 | 15.21620 | 33.04497 | 37026 ft | 477 kts | 176° |
| 2026-05-07 19:12 | 15.15055 | 33.05512 | 37026 ft | 477 kts | 176° |
| 2026-05-07 19:12 | 15.08485 | 33.06529 | 37027 ft | 477 kts | 176° |
| 2026-05-07 19:13 | 15.01915 | 33.07543 | 37037 ft | 478 kts | 176° |
| 2026-05-07 19:13 | 14.95374 | 33.08553 | 37033 ft | 479 kts | 176° |
| 2026-05-07 19:14 | 14.88783 | 33.09569 | 37033 ft | 479 kts | 176° |
| 2026-05-07 19:14 | 14.82191 | 33.10587 | 37042 ft | 479 kts | 176° |
| 2026-05-07 19:15 | 14.75594 | 33.11606 | 37043 ft | 479 kts | 176° |
| 2026-05-07 19:15 | 14.68999 | 33.12621 | 37050 ft | 480 kts | 176° |
| 2026-05-07 19:16 | 14.62442 | 33.13629 | 37047 ft | 480 kts | 176° |
| 2026-05-07 19:16 | 14.55829 | 33.14646 | 37047 ft | 480 kts | 176° |
| 2026-05-07 19:17 | 14.49216 | 33.15669 | 37040 ft | 480 kts | 176° |
| 2026-05-07 19:17 | 14.42613 | 33.16685 | 37053 ft | 480 kts | 176° |
| 2026-05-07 19:18 | 14.35998 | 33.17698 | 37055 ft | 481 kts | 176° |
| 2026-05-07 19:18 | 14.29427 | 33.18705 | 37054 ft | 481 kts | 176° |
| 2026-05-07 19:19 | 14.22797 | 33.19721 | 37057 ft | 482 kts | 176° |
| 2026-05-07 19:19 | 14.16173 | 33.20737 | 37060 ft | 481 kts | 176° |
| 2026-05-07 19:20 | 14.09550 | 33.21756 | 37065 ft | 481 kts | 176° |
| 2026-05-07 19:20 | 14.02968 | 33.22765 | 37063 ft | 482 kts | 176° |
| 2026-05-07 19:21 | 13.96335 | 33.23781 | 37062 ft | 482 kts | 175° |
| 2026-05-07 19:21 | 13.89689 | 33.24799 | 37066 ft | 483 kts | 175° |
| 2026-05-07 19:22 | 13.83037 | 33.25816 | 37073 ft | 483 kts | 175° |
| 2026-05-07 19:22 | 13.76426 | 33.26827 | 37073 ft | 484 kts | 175° |
| 2026-05-07 19:23 | 13.69767 | 33.27843 | 37072 ft | 483 kts | 175° |
| 2026-05-07 19:23 | 13.63113 | 33.28860 | 37073 ft | 484 kts | 175° |
| 2026-05-07 19:24 | 13.56460 | 33.29875 | 37073 ft | 484 kts | 175° |
| 2026-05-07 19:24 | 13.49802 | 33.30891 | 37082 ft | 484 kts | 175° |
| 2026-05-07 19:25 | 13.43189 | 33.31897 | 37080 ft | 483 kts | 175° |
| 2026-05-07 19:25 | 13.36536 | 33.32912 | 37083 ft | 483 kts | 175° |
| 2026-05-07 19:26 | 13.29882 | 33.33927 | 37083 ft | 483 kts | 175° |
| 2026-05-07 19:26 | 13.23228 | 33.34938 | 37081 ft | 483 kts | 175° |
| 2026-05-07 19:27 | 13.16572 | 33.35952 | 37099 ft | 484 kts | 175° |
| 2026-05-07 19:27 | 13.09916 | 33.36964 | 37097 ft | 484 kts | 175° |
| 2026-05-07 19:28 | 13.03301 | 33.37970 | 37084 ft | 484 kts | 175° |
| 2026-05-07 19:28 | 12.96640 | 33.38983 | 37095 ft | 484 kts | 175° |
| 2026-05-07 19:29 | 12.89973 | 33.39993 | 37088 ft | 484 kts | 175° |
| 2026-05-07 19:29 | 12.83306 | 33.41003 | 37099 ft | 484 kts | 175° |
| 2026-05-07 19:30 | 12.76640 | 33.42014 | 37095 ft | 485 kts | 175° |
| 2026-05-07 19:30 | 12.70009 | 33.43019 | 37104 ft | 485 kts | 175° |
| 2026-05-07 19:31 | 12.63331 | 33.44033 | 37103 ft | 485 kts | 175° |
| 2026-05-07 19:31 | 12.56652 | 33.45046 | 37100 ft | 485 kts | 175° |
| 2026-05-07 19:32 | 12.49971 | 33.46055 | 37108 ft | 486 kts | 175° |
| 2026-05-07 19:32 | 12.43285 | 33.47065 | 37113 ft | 486 kts | 175° |
| 2026-05-07 19:33 | 12.36639 | 33.48071 | 37112 ft | 486 kts | 175° |
| 2026-05-07 19:33 | 12.29942 | 33.49079 | 37120 ft | 486 kts | 175° |
| 2026-05-07 19:34 | 12.23244 | 33.50092 | 37128 ft | 487 kts | 175° |
| 2026-05-07 19:34 | 12.16548 | 33.51108 | 37123 ft | 484 kts | 175° |
| 2026-05-07 19:35 | 12.09992 | 33.52100 | 37120 ft | 477 kts | 175° |
| 2026-05-07 19:35 | 12.03447 | 33.53088 | 37121 ft | 475 kts | 175° |
| 2026-05-07 19:36 | 11.96901 | 33.54071 | 37127 ft | 475 kts | 175° |
| 2026-05-07 19:36 | 11.90359 | 33.55055 | 37127 ft | 476 kts | 175° |
| 2026-05-07 19:37 | 11.83810 | 33.56040 | 37128 ft | 476 kts | 175° |
| 2026-05-07 19:37 | 11.77307 | 33.57020 | 37128 ft | 476 kts | 175° |
| 2026-05-07 19:38 | 11.70751 | 33.58006 | 37130 ft | 476 kts | 175° |
| 2026-05-07 19:38 | 11.64202 | 33.58991 | 37129 ft | 476 kts | 175° |
| 2026-05-07 19:39 | 11.57647 | 33.59977 | 37138 ft | 476 kts | 175° |
| 2026-05-07 19:39 | 11.51139 | 33.60954 | 37137 ft | 476 kts | 174° |
| 2026-05-07 19:40 | 11.44590 | 33.61938 | 37138 ft | 476 kts | 174° |
| 2026-05-07 19:40 | 11.38039 | 33.62922 | 37139 ft | 476 kts | 174° |
| 2026-05-07 19:41 | 11.31491 | 33.63903 | 37138 ft | 476 kts | 174° |
| 2026-05-07 19:41 | 11.24938 | 33.64886 | 37137 ft | 476 kts | 174° |
| 2026-05-07 19:42 | 11.18430 | 33.65861 | 37138 ft | 476 kts | 174° |
| 2026-05-07 19:42 | 11.11882 | 33.66840 | 37137 ft | 476 kts | 174° |
| 2026-05-07 19:43 | 11.05327 | 33.67826 | 37147 ft | 476 kts | 174° |
| 2026-05-07 19:43 | 10.98772 | 33.68807 | 37146 ft | 476 kts | 174° |
| 2026-05-07 19:44 | 10.92210 | 33.69789 | 37146 ft | 477 kts | 174° |
| 2026-05-07 19:44 | 10.85646 | 33.70769 | 37146 ft | 477 kts | 174° |
| 2026-05-07 19:45 | 10.79124 | 33.71740 | 37147 ft | 477 kts | 174° |
| 2026-05-07 19:45 | 10.72563 | 33.72720 | 37146 ft | 477 kts | 174° |
| 2026-05-07 19:46 | 10.65993 | 33.73702 | 37146 ft | 478 kts | 174° |
| 2026-05-07 19:46 | 10.59416 | 33.74682 | 37146 ft | 477 kts | 174° |
| 2026-05-07 19:47 | 10.52847 | 33.75661 | 37145 ft | 478 kts | 174° |
| 2026-05-07 19:47 | 10.46263 | 33.76644 | 37157 ft | 478 kts | 174° |
| 2026-05-07 19:48 | 10.39677 | 33.77620 | 37154 ft | 478 kts | 174° |
| 2026-05-07 19:48 | 10.33148 | 33.78593 | 37153 ft | 478 kts | 174° |
| 2026-05-07 19:49 | 10.26561 | 33.79576 | 37157 ft | 478 kts | 174° |
| 2026-05-07 19:49 | 10.19975 | 33.80557 | 37157 ft | 479 kts | 174° |
| 2026-05-07 19:50 | 10.13381 | 33.81535 | 37156 ft | 479 kts | 174° |
| 2026-05-07 19:50 | 10.06794 | 33.82515 | 37154 ft | 478 kts | 174° |
| 2026-05-07 19:51 | 10.00246 | 33.83489 | 37155 ft | 479 kts | 174° |
| 2026-05-07 19:51 | 9.93651 | 33.84466 | 37158 ft | 479 kts | 174° |
| 2026-05-07 19:52 | 9.87055 | 33.85443 | 37154 ft | 478 kts | 174° |
| 2026-05-07 19:52 | 9.80473 | 33.86423 | 37157 ft | 479 kts | 174° |
| 2026-05-07 19:53 | 9.73916 | 33.87398 | 37157 ft | 479 kts | 174° |
| 2026-05-07 19:53 | 9.67324 | 33.88374 | 37155 ft | 479 kts | 174° |
| 2026-05-07 19:54 | 9.60719 | 33.89351 | 37153 ft | 480 kts | 174° |
| 2026-05-07 19:54 | 9.54110 | 33.90329 | 37157 ft | 480 kts | 174° |
| 2026-05-07 19:55 | 9.47506 | 33.91309 | 37157 ft | 480 kts | 173° |
| 2026-05-07 19:55 | 9.40935 | 33.92281 | 37156 ft | 481 kts | 173° |
| 2026-05-07 19:56 | 9.34325 | 33.93320 | 37157 ft | 482 kts | 170° |
| 2026-05-07 19:56 | 9.27811 | 33.94992 | 37157 ft | 484 kts | 167° |
| 2026-05-07 19:57 | 9.21313 | 33.96786 | 37156 ft | 484 kts | 166° |
| 2026-05-07 19:57 | 9.14868 | 33.98587 | 37155 ft | 484 kts | 166° |
| 2026-05-07 19:58 | 9.08362 | 34.00397 | 37155 ft | 485 kts | 166° |
| 2026-05-07 19:58 | 9.01852 | 34.02210 | 37158 ft | 486 kts | 166° |
| 2026-05-07 19:59 | 8.95313 | 34.04028 | 37141 ft | 488 kts | 166° |
| 2026-05-07 19:59 | 8.88753 | 34.05835 | 37080 ft | 489 kts | 166° |
| 2026-05-07 20:00 | 8.82235 | 34.07635 | 37081 ft | 489 kts | 166° |
| 2026-05-07 20:00 | 8.75658 | 34.09457 | 37081 ft | 490 kts | 166° |
| 2026-05-07 20:01 | 8.69074 | 34.11277 | 37082 ft | 491 kts | 166° |
| 2026-05-07 20:01 | 8.62483 | 34.13100 | 37082 ft | 491 kts | 166° |
| 2026-05-07 20:02 | 8.55897 | 34.14922 | 37075 ft | 491 kts | 166° |
| 2026-05-07 20:02 | 8.49337 | 34.16734 | 37073 ft | 492 kts | 166° |
| 2026-05-07 20:03 | 8.42738 | 34.18557 | 37072 ft | 492 kts | 166° |
| 2026-05-07 20:03 | 8.36123 | 34.20384 | 37072 ft | 493 kts | 166° |
| 2026-05-07 20:04 | 8.29512 | 34.22210 | 37074 ft | 492 kts | 166° |
| 2026-05-07 20:04 | 8.22900 | 34.24028 | 37063 ft | 493 kts | 166° |
| 2026-05-07 20:05 | 8.16326 | 34.25840 | 37064 ft | 493 kts | 166° |
| 2026-05-07 20:05 | 8.09702 | 34.27666 | 37063 ft | 493 kts | 166° |
| 2026-05-07 20:06 | 8.03083 | 34.29490 | 37066 ft | 493 kts | 166° |
| 2026-05-07 20:06 | 7.96462 | 34.31300 | 37051 ft | 493 kts | 166° |
| 2026-05-07 20:07 | 7.89836 | 34.33108 | 37058 ft | 494 kts | 166° |
| 2026-05-07 20:07 | 7.83256 | 34.34905 | 37051 ft | 493 kts | 166° |
| 2026-05-07 20:08 | 7.76627 | 34.36711 | 37050 ft | 493 kts | 166° |
| 2026-05-07 20:08 | 7.70003 | 34.38518 | 37046 ft | 493 kts | 166° |
| 2026-05-07 20:09 | 7.63386 | 34.40325 | 37050 ft | 493 kts | 166° |
| 2026-05-07 20:10 | 7.53503 | 34.43022 | 37033 ft | 493 kts | 166° |
| 2026-05-07 20:10 | 7.46881 | 34.44827 | 37033 ft | 493 kts | 166° |
| 2026-05-07 20:11 | 7.40266 | 34.46632 | 37035 ft | 492 kts | 166° |
| 2026-05-07 20:11 | 7.33648 | 34.48440 | 37026 ft | 493 kts | 166° |
| 2026-05-07 20:12 | 7.27072 | 34.50233 | 37026 ft | 493 kts | 166° |
| 2026-05-07 20:12 | 7.20452 | 34.52031 | 37020 ft | 493 kts | 166° |
| 2026-05-07 20:13 | 7.13842 | 34.53830 | 37017 ft | 492 kts | 166° |
| 2026-05-07 20:13 | 7.07231 | 34.55629 | 37017 ft | 492 kts | 166° |
| 2026-05-07 20:14 | 7.00661 | 34.57417 | 37008 ft | 492 kts | 166° |
| 2026-05-07 20:14 | 6.94051 | 34.59215 | 37008 ft | 492 kts | 166° |
| 2026-05-07 20:15 | 6.87441 | 34.61014 | 37002 ft | 492 kts | 166° |
| 2026-05-07 20:15 | 6.80841 | 34.62808 | 36999 ft | 492 kts | 166° |
| 2026-05-07 20:16 | 6.74279 | 34.64591 | 36998 ft | 492 kts | 166° |
| 2026-05-07 20:16 | 6.67672 | 34.66385 | 36990 ft | 491 kts | 166° |
| 2026-05-07 20:17 | 6.61069 | 34.68157 | 36990 ft | 492 kts | 166° |
| 2026-05-07 20:17 | 6.54450 | 34.69890 | 36984 ft | 492 kts | 166° |
| 2026-05-07 20:18 | 6.47832 | 34.71622 | 36983 ft | 491 kts | 166° |
| 2026-05-07 20:18 | 6.41219 | 34.73360 | 36974 ft | 491 kts | 166° |
| 2026-05-07 20:19 | 6.34654 | 34.75089 | 36968 ft | 487 kts | 166° |
| 2026-05-07 20:19 | 6.31429 | 34.75939 | 36965 ft | 471 kts | 166° |
| 2026-05-07 20:19 | 6.28318 | 34.76760 | 36965 ft | 455 kts | 166° |
| 2026-05-07 20:19 | 6.25304 | 34.77554 | 36960 ft | 442 kts | 166° |
| 2026-05-07 20:20 | 6.22341 | 34.78334 | 36961 ft | 439 kts | 166° |
| 2026-05-07 20:20 | 6.16431 | 34.79888 | 36962 ft | 439 kts | 166° |
| 2026-05-07 20:21 | 6.10556 | 34.81432 | 36955 ft | 440 kts | 166° |
| 2026-05-07 20:21 | 6.04643 | 34.82986 | 36952 ft | 439 kts | 166° |
| 2026-05-07 20:22 | 5.98727 | 34.84543 | 36953 ft | 439 kts | 166° |
| 2026-05-07 20:22 | 5.92840 | 34.86090 | 36943 ft | 439 kts | 166° |
| 2026-05-07 20:23 | 5.87072 | 34.87606 | 36944 ft | 439 kts | 166° |
| 2026-05-07 20:23 | 5.82296 | 34.88861 | 36937 ft | 439 kts | 166° |
| 2026-05-07 20:24 | 5.76384 | 34.90415 | 36935 ft | 439 kts | 166° |
| 2026-05-07 20:24 | 5.70474 | 34.91969 | 36928 ft | 439 kts | 166° |
| 2026-05-07 20:25 | 5.64568 | 34.93522 | 36928 ft | 439 kts | 166° |
| 2026-05-07 20:25 | 5.58657 | 34.95074 | 36915 ft | 439 kts | 166° |
| 2026-05-07 20:26 | 5.52784 | 34.96615 | 36916 ft | 439 kts | 166° |
| 2026-05-07 20:26 | 5.46872 | 34.98166 | 36911 ft | 439 kts | 166° |
| 2026-05-07 20:27 | 5.40957 | 34.99718 | 36904 ft | 439 kts | 166° |
| 2026-05-07 20:27 | 5.35048 | 35.01267 | 36902 ft | 439 kts | 166° |
| 2026-05-07 20:28 | 5.29135 | 35.02823 | 36906 ft | 439 kts | 166° |
| 2026-05-07 20:28 | 5.23270 | 35.04420 | 36904 ft | 439 kts | 165° |
| 2026-05-07 20:29 | 5.17374 | 35.06043 | 36898 ft | 439 kts | 165° |
| 2026-05-07 20:29 | 5.11481 | 35.07655 | 36883 ft | 435 kts | 165° |
| 2026-05-07 20:29 | 5.08601 | 35.08440 | 36879 ft | 424 kts | 165° |
| 2026-05-07 20:30 | 5.05780 | 35.09208 | 36888 ft | 419 kts | 165° |
| 2026-05-07 20:30 | 5.00174 | 35.10735 | 36882 ft | 417 kts | 165° |
| 2026-05-07 20:31 | 4.94610 | 35.12251 | 36876 ft | 417 kts | 165° |
| 2026-05-07 20:31 | 4.89024 | 35.13774 | 36872 ft | 410 kts | 165° |
| 2026-05-07 20:31 | 4.86321 | 35.14510 | 36863 ft | 395 kts | 165° |
| 2026-05-07 20:32 | 4.83719 | 35.15219 | 36862 ft | 382 kts | 165° |
| 2026-05-07 20:32 | 4.78629 | 35.16607 | 36868 ft | 378 kts | 165° |
| 2026-05-07 20:33 | 4.73598 | 35.17977 | 36868 ft | 377 kts | 165° |
| 2026-05-07 20:33 | 4.68525 | 35.19358 | 36861 ft | 378 kts | 165° |
| 2026-05-07 20:34 | 4.63453 | 35.20739 | 36859 ft | 378 kts | 165° |
| 2026-05-07 20:34 | 4.58375 | 35.22120 | 36855 ft | 378 kts | 165° |
| 2026-05-07 20:35 | 4.53294 | 35.23506 | 36849 ft | 378 kts | 165° |
| 2026-05-07 20:35 | 4.48270 | 35.24868 | 36849 ft | 378 kts | 165° |
| 2026-05-07 20:36 | 4.43192 | 35.26249 | 36850 ft | 379 kts | 165° |
| 2026-05-07 20:36 | 4.38107 | 35.27637 | 36843 ft | 378 kts | 165° |
| 2026-05-07 20:37 | 4.33022 | 35.29022 | 36839 ft | 379 kts | 165° |
| 2026-05-07 20:37 | 4.27926 | 35.30408 | 36852 ft | 379 kts | 165° |
| 2026-05-07 20:38 | 4.22869 | 35.31781 | 36868 ft | 379 kts | 165° |
| 2026-05-07 20:38 | 4.17775 | 35.33164 | 36870 ft | 379 kts | 165° |
| 2026-05-07 20:39 | 4.12681 | 35.34549 | 36861 ft | 379 kts | 165° |
| 2026-05-07 20:39 | 4.07585 | 35.35936 | 36861 ft | 380 kts | 165° |
| 2026-05-07 20:40 | 4.02515 | 35.37315 | 36855 ft | 380 kts | 165° |
| 2026-05-07 20:40 | 3.97416 | 35.38697 | 36851 ft | 380 kts | 166° |
| 2026-05-07 20:41 | 3.92300 | 35.40031 | 36846 ft | 380 kts | 166° |
| 2026-05-07 20:41 | 3.87170 | 35.41355 | 36840 ft | 380 kts | 166° |
| 2026-05-07 20:42 | 3.82046 | 35.42688 | 36841 ft | 381 kts | 166° |
| 2026-05-07 20:42 | 3.76950 | 35.44016 | 36834 ft | 381 kts | 166° |
| 2026-05-07 20:43 | 3.71826 | 35.45352 | 36831 ft | 381 kts | 166° |
| 2026-05-07 20:43 | 3.66700 | 35.46689 | 36824 ft | 381 kts | 166° |
| 2026-05-07 20:44 | 3.61570 | 35.48029 | 36834 ft | 381 kts | 166° |
| 2026-05-07 20:44 | 3.56443 | 35.49367 | 36817 ft | 381 kts | 166° |
| 2026-05-07 20:45 | 3.51349 | 35.50694 | 36814 ft | 381 kts | 166° |
| 2026-05-07 20:45 | 3.46228 | 35.52029 | 36817 ft | 381 kts | 166° |
| 2026-05-07 20:46 | 3.41102 | 35.53367 | 36810 ft | 380 kts | 166° |
| 2026-05-07 20:46 | 3.35978 | 35.54701 | 36813 ft | 380 kts | 166° |
| 2026-05-07 20:47 | 3.30889 | 35.56027 | 36804 ft | 380 kts | 166° |
| 2026-05-07 20:47 | 3.25766 | 35.57363 | 36805 ft | 380 kts | 166° |
| 2026-05-07 20:48 | 3.20647 | 35.58696 | 36806 ft | 380 kts | 166° |
| 2026-05-07 20:48 | 3.15526 | 35.60030 | 36805 ft | 380 kts | 166° |
| 2026-05-07 20:49 | 3.10394 | 35.61285 | 36802 ft | 380 kts | 171° |
| 2026-05-07 20:49 | 3.05225 | 35.62152 | 36806 ft | 379 kts | 171° |
| 2026-05-07 20:50 | 3.00019 | 35.62994 | 36806 ft | 379 kts | 171° |
| 2026-05-07 20:50 | 2.94811 | 35.63832 | 36806 ft | 379 kts | 171° |
| 2026-05-07 20:51 | 2.89607 | 35.64667 | 36801 ft | 379 kts | 171° |
| 2026-05-07 20:51 | 2.84439 | 35.65496 | 36814 ft | 379 kts | 171° |
| 2026-05-07 20:52 | 2.79221 | 35.66333 | 36816 ft | 379 kts | 172° |
| 2026-05-07 20:52 | 2.74014 | 35.67167 | 36816 ft | 379 kts | 171° |
| 2026-05-07 20:53 | 2.68811 | 35.68001 | 36834 ft | 379 kts | 171° |
| 2026-05-07 20:53 | 2.63605 | 35.68835 | 36836 ft | 379 kts | 171° |
| 2026-05-07 20:54 | 2.58437 | 35.69663 | 36842 ft | 378 kts | 171° |
| 2026-05-07 20:54 | 2.53237 | 35.70496 | 36854 ft | 379 kts | 171° |
| 2026-05-07 20:55 | 2.48037 | 35.71330 | 36864 ft | 378 kts | 171° |
| 2026-05-07 20:55 | 2.42831 | 35.72165 | 36879 ft | 378 kts | 171° |
| 2026-05-07 20:56 | 2.37631 | 35.72998 | 36896 ft | 379 kts | 171° |
| 2026-05-07 20:56 | 2.32459 | 35.73827 | 36902 ft | 379 kts | 171° |
| 2026-05-07 20:57 | 2.27254 | 35.74660 | 36929 ft | 379 kts | 171° |
| 2026-05-07 20:57 | 2.22051 | 35.75494 | 36940 ft | 378 kts | 171° |
| 2026-05-07 20:58 | 2.16852 | 35.76326 | 36952 ft | 378 kts | 171° |
| 2026-05-07 20:58 | 2.11652 | 35.77159 | 36970 ft | 379 kts | 171° |
| 2026-05-07 20:59 | 2.06485 | 35.77987 | 36982 ft | 379 kts | 171° |
| 2026-05-07 20:59 | 2.01281 | 35.78820 | 37003 ft | 379 kts | 171° |
| 2026-05-07 21:00 | 1.96075 | 35.79654 | 37016 ft | 379 kts | 171° |
| 2026-05-07 21:00 | 1.90868 | 35.80487 | 37043 ft | 383 kts | 171° |
| 2026-05-07 21:01 | 1.85485 | 35.81349 | 37056 ft | 400 kts | 171° |
| 2026-05-07 21:01 | 1.80099 | 35.82211 | 37066 ft | 401 kts | 171° |
| 2026-05-07 21:02 | 1.74753 | 35.83067 | 37077 ft | 401 kts | 171° |
| 2026-05-07 21:02 | 1.69545 | 35.83901 | 37082 ft | 401 kts | 171° |
| 2026-05-07 21:03 | 1.64353 | 35.84732 | 37097 ft | 401 kts | 171° |
| 2026-05-07 21:03 | 1.59134 | 35.85587 | 37104 ft | 401 kts | 170° |
| 2026-05-07 21:04 | 1.54070 | 35.86498 | 37121 ft | 401 kts | 170° |
| 2026-05-07 21:04 | 1.48970 | 35.87401 | 37122 ft | 401 kts | 170° |
| 2026-05-07 21:05 | 1.43743 | 35.88324 | 37135 ft | 401 kts | 171° |
| 2026-05-07 21:05 | 1.38638 | 35.89223 | 37144 ft | 402 kts | 171° |
| 2026-05-07 21:06 | 1.33123 | 35.90194 | 37147 ft | 401 kts | 171° |
| 2026-05-07 21:06 | 1.27681 | 35.91153 | 37155 ft | 399 kts | 171° |
| 2026-05-07 21:07 | 1.22217 | 35.92113 | 37181 ft | 399 kts | 171° |
| 2026-05-07 21:07 | 1.16751 | 35.93076 | 37210 ft | 399 kts | 171° |
| 2026-05-07 21:08 | 1.11284 | 35.94039 | 37217 ft | 399 kts | 171° |
| 2026-05-07 21:08 | 1.05855 | 35.94994 | 37231 ft | 399 kts | 171° |
| 2026-05-07 21:09 | 1.00393 | 35.95956 | 37230 ft | 399 kts | 171° |
| 2026-05-07 21:09 | 0.94925 | 35.96918 | 37238 ft | 399 kts | 171° |
| 2026-05-07 21:10 | 0.89461 | 35.97879 | 37282 ft | 399 kts | 171° |
| 2026-05-07 21:10 | 0.83996 | 35.98841 | 37285 ft | 399 kts | 170° |
| 2026-05-07 21:11 | 0.78568 | 35.99797 | 37283 ft | 399 kts | 170° |
| 2026-05-07 21:11 | 0.70376 | 36.01239 | 37285 ft | 399 kts | 170° |
| 2026-05-07 21:12 | 0.64913 | 36.02200 | 37284 ft | 399 kts | 170° |
| 2026-05-07 21:12 | 0.59445 | 36.03162 | 37284 ft | 399 kts | 170° |
| 2026-05-07 21:13 | 0.54023 | 36.04117 | 37285 ft | 399 kts | 170° |
| 2026-05-07 21:13 | 0.48553 | 36.05079 | 37278 ft | 399 kts | 170° |
| 2026-05-07 21:14 | 0.43089 | 36.06041 | 37257 ft | 399 kts | 170° |
| 2026-05-07 21:14 | 0.37632 | 36.07001 | 37257 ft | 398 kts | 170° |
| 2026-05-07 21:15 | 0.32211 | 36.07954 | 37250 ft | 398 kts | 170° |
| 2026-05-07 21:15 | 0.26748 | 36.08916 | 37248 ft | 398 kts | 170° |
| 2026-05-07 21:16 | 0.21292 | 36.09876 | 37248 ft | 398 kts | 170° |
| 2026-05-07 21:16 | 0.15835 | 36.10837 | 37237 ft | 398 kts | 170° |
| 2026-05-07 21:17 | 0.10373 | 36.11797 | 37238 ft | 398 kts | 170° |
| 2026-05-07 21:17 | 0.04953 | 36.12751 | 37243 ft | 398 kts | 170° |
| 2026-05-07 21:18 | -0.00504 | 36.13712 | 37236 ft | 398 kts | 170° |
| 2026-05-07 21:18 | -0.05966 | 36.14674 | 37228 ft | 398 kts | 170° |
| 2026-05-07 21:19 | -0.11426 | 36.15634 | 37230 ft | 398 kts | 170° |
| 2026-05-07 21:19 | -0.16841 | 36.16588 | 37257 ft | 398 kts | 170° |
| 2026-05-07 21:20 | -0.22296 | 36.17547 | 37249 ft | 398 kts | 170° |
| 2026-05-07 21:20 | -0.27752 | 36.18506 | 37247 ft | 398 kts | 170° |
| 2026-05-07 21:21 | -0.33210 | 36.19467 | 37248 ft | 398 kts | 170° |
| 2026-05-07 21:21 | -0.38669 | 36.20427 | 37247 ft | 398 kts | 170° |
| 2026-05-07 21:22 | -0.44120 | 36.21384 | 37239 ft | 398 kts | 170° |
| 2026-05-07 21:22 | -0.49528 | 36.22337 | 37179 ft | 394 kts | 170° |
| 2026-05-07 21:23 | -0.52221 | 36.22811 | 36737 ft | 392 kts | 170° |
| 2026-05-07 21:23 | -0.54911 | 36.23284 | 36122 ft | 394 kts | 170° |
| 2026-05-07 21:23 | -0.57624 | 36.23762 | 35426 ft | 399 kts | 170° |
| 2026-05-07 21:23 | -0.60379 | 36.24247 | 34683 ft | 405 kts | 170° |
| 2026-05-07 21:24 | -0.63171 | 36.24739 | 33934 ft | 410 kts | 170° |
| 2026-05-07 21:24 | -0.66002 | 36.25237 | 33198 ft | 415 kts | 170° |
| 2026-05-07 21:24 | -0.68859 | 36.25740 | 32441 ft | 417 kts | 170° |
| 2026-05-07 21:24 | -0.71659 | 36.26233 | 31703 ft | 413 kts | 170° |
| 2026-05-07 21:25 | -0.74492 | 36.26731 | 30959 ft | 415 kts | 170° |
| 2026-05-07 21:25 | -0.77357 | 36.27236 | 30214 ft | 420 kts | 170° |
| 2026-05-07 21:25 | -0.80241 | 36.27744 | 29466 ft | 423 kts | 170° |
| 2026-05-07 21:25 | -0.83156 | 36.28257 | 28715 ft | 427 kts | 170° |
| 2026-05-07 21:26 | -0.86064 | 36.28769 | 27939 ft | 419 kts | 170° |
| 2026-05-07 21:26 | -0.88866 | 36.29262 | 27163 ft | 409 kts | 170° |
| 2026-05-07 21:26 | -0.91636 | 36.29749 | 26383 ft | 400 kts | 170° |
| 2026-05-07 21:26 | -0.94345 | 36.30226 | 25610 ft | 392 kts | 170° |
| 2026-05-07 21:27 | -0.97000 | 36.30694 | 24834 ft | 383 kts | 170° |
| 2026-05-07 21:27 | -0.99599 | 36.31151 | 24059 ft | 376 kts | 170° |
| 2026-05-07 21:27 | -1.02152 | 36.31600 | 23285 ft | 369 kts | 170° |
| 2026-05-07 21:27 | -1.04660 | 36.32042 | 22511 ft | 362 kts | 170° |
| 2026-05-07 21:28 | -1.07121 | 36.32475 | 21736 ft | 356 kts | 170° |
| 2026-05-07 21:28 | -1.09537 | 36.32900 | 20962 ft | 350 kts | 170° |
| 2026-05-07 21:28 | -1.11913 | 36.33318 | 20187 ft | 344 kts | 170° |
| 2026-05-07 21:28 | -1.14247 | 36.33731 | 19497 ft | 336 kts | 170° |
| 2026-05-07 21:29 | -1.16520 | 36.34132 | 18868 ft | 327 kts | 169° |
| 2026-05-07 21:29 | -1.18702 | 36.34518 | 18246 ft | 319 kts | 169° |
| 2026-05-07 21:29 | -1.20863 | 36.34902 | 17622 ft | 312 kts | 170° |
| 2026-05-07 21:29 | -1.22970 | 36.35272 | 17075 ft | 302 kts | 170° |
| 2026-05-07 21:30 | -1.25024 | 36.35632 | 16680 ft | 300 kts | 170° |
| 2026-05-07 21:30 | -1.27080 | 36.35992 | 16344 ft | 298 kts | 170° |
| 2026-05-07 21:30 | -1.29110 | 36.36349 | 16017 ft | 295 kts | 170° |
| 2026-05-07 21:30 | -1.31098 | 36.36828 | 15691 ft | 293 kts | 160° |
| 2026-05-07 21:31 | -1.32904 | 36.37734 | 15362 ft | 291 kts | 145° |
| 2026-05-07 21:31 | -1.34391 | 36.39091 | 15012 ft | 289 kts | 129° |
| 2026-05-07 21:31 | -1.35435 | 36.40757 | 14667 ft | 288 kts | 114° |
| 2026-05-07 21:31 | -1.35998 | 36.42666 | 14308 ft | 286 kts | 96° |
| 2026-05-07 21:32 | -1.36001 | 36.44642 | 13964 ft | 284 kts | 87° |
| 2026-05-07 21:32 | -1.35937 | 36.46612 | 13615 ft | 284 kts | 89° |
| 2026-05-07 21:32 | -1.35946 | 36.48578 | 13265 ft | 282 kts | 91° |
| 2026-05-07 21:32 | -1.36006 | 36.50527 | 12906 ft | 281 kts | 92° |
| 2026-05-07 21:33 | -1.36096 | 36.52476 | 12535 ft | 279 kts | 92° |
| 2026-05-07 21:33 | -1.36198 | 36.54409 | 12137 ft | 278 kts | 93° |
| 2026-05-07 21:33 | -1.36308 | 36.56308 | 11741 ft | 277 kts | 93° |
| 2026-05-07 21:33 | -1.36423 | 36.58226 | 11342 ft | 276 kts | 94° |
| 2026-05-07 21:34 | -1.36542 | 36.60138 | 10940 ft | 275 kts | 94° |
| 2026-05-07 21:34 | -1.36662 | 36.62041 | 10544 ft | 274 kts | 94° |
| 2026-05-07 21:34 | -1.36780 | 36.63939 | 10144 ft | 273 kts | 94° |
| 2026-05-07 21:34 | -1.36898 | 36.65828 | 9751 ft | 272 kts | 94° |
| 2026-05-07 21:35 | -1.37018 | 36.67708 | 9348 ft | 271 kts | 95° |
| 2026-05-07 21:35 | -1.37139 | 36.69581 | 8947 ft | 269 kts | 95° |
| 2026-05-07 21:35 | -1.37256 | 36.71426 | 8534 ft | 261 kts | 94° |
| 2026-05-07 21:35 | -1.37366 | 36.73177 | 8193 ft | 243 kts | 94° |
| 2026-05-07 21:36 | -1.37467 | 36.74756 | 8119 ft | 220 kts | 94° |
| 2026-05-07 21:36 | -1.37565 | 36.76249 | 8063 ft | 210 kts | 94° |
| 2026-05-07 21:36 | -1.37653 | 36.77644 | 8007 ft | 196 kts | 94° |
| 2026-05-07 21:36 | -1.37738 | 36.78982 | 7950 ft | 191 kts | 94° |
| 2026-05-07 21:37 | -1.37821 | 36.80280 | 7898 ft | 183 kts | 94° |
| 2026-05-07 21:37 | -1.37901 | 36.81542 | 7807 ft | 181 kts | 93° |
| 2026-05-07 21:37 | -1.37979 | 36.82773 | 7586 ft | 173 kts | 93° |
| 2026-05-07 21:37 | -1.37972 | 36.83937 | 7353 ft | 165 kts | 78° |
| 2026-05-07 21:38 | -1.37623 | 36.85007 | 7130 ft | 165 kts | 63° |
| 2026-05-07 21:38 | -1.36931 | 36.85936 | 6747 ft | 168 kts | 47° |
| 2026-05-07 21:38 | -1.36210 | 36.86822 | 6457 ft | 159 kts | 56° |
| 2026-05-07 21:38 | -1.35633 | 36.87723 | 6269 ft | 155 kts | 56° |
| 2026-05-07 21:39 | -1.34990 | 36.88602 | 6083 ft | 159 kts | 51° |
| 2026-05-07 21:39 | -1.34332 | 36.89498 | 5843 ft | 160 kts | 54° |
| 2026-05-07 21:39 | -1.33675 | 36.90390 | 5649 ft | 161 kts | 52° |
| 2026-05-07 21:39 | -1.33022 | 36.91283 | 5478 ft | 159 kts | 52° |
| 2026-05-07 21:40 | -1.32364 | 36.92177 | 5339 ft | 155 kts | 53° |
| 2026-05-07 21:40 | -1.31792 | 36.92963 | 5309 ft | 127 kts | 53° |
| 2026-05-07 21:40 | -1.31367 | 36.93535 | 5306 ft | 57 kts | 54° |
| 2026-05-07 21:40 | -1.31227 | 36.93732 | 5309 ft | 30 kts | 54° |
| 2026-05-07 21:41 | -1.31201 | 36.93854 | 5305 ft | 6 kts | 138° |
| 2026-05-07 21:41 | -1.31235 | 36.93874 | 5306 ft | 6 kts | 146° |
| 2026-05-07 21:41 | -1.31284 | 36.93908 | 5310 ft | 15 kts | 146° |
| 2026-05-07 21:41 | -1.31397 | 36.93986 | 5311 ft | 21 kts | 151° |
| 2026-05-07 21:42 | -1.31454 | 36.93980 | 5311 ft | 3 kts | 232° |
| 2026-05-07 21:42 | -1.31473 | 36.93956 | 5312 ft | 9 kts | 232° |
| 2026-05-07 21:42 | -1.31529 | 36.93881 | 5315 ft | 14 kts | 233° |
| 2026-05-07 21:42 | -1.31601 | 36.93782 | 5309 ft | 22 kts | 234° |
| 2026-05-07 21:43 | -1.31693 | 36.93653 | 5313 ft | 23 kts | 234° |
| 2026-05-07 21:43 | -1.31789 | 36.93519 | 5318 ft | 24 kts | 234° |
| 2026-05-07 21:43 | -1.31892 | 36.93376 | 5317 ft | 26 kts | 234° |
| 2026-05-07 21:43 | -1.31997 | 36.93233 | 5321 ft | 26 kts | 233° |
| 2026-05-07 21:44 | -1.32104 | 36.93089 | 5324 ft | 26 kts | 233° |
| 2026-05-07 21:44 | -1.32209 | 36.92947 | 5328 ft | 25 kts | 233° |
| 2026-05-07 21:44 | -1.32316 | 36.92804 | 5332 ft | 26 kts | 234° |
| 2026-05-07 21:44 | -1.32420 | 36.92659 | 5332 ft | 27 kts | 234° |
| 2026-05-07 21:45 | -1.32531 | 36.92507 | 5332 ft | 28 kts | 234° |
| 2026-05-07 21:45 | -1.32645 | 36.92354 | 5331 ft | 18 kts | 222° |
| 2026-05-07 21:45 | -1.32688 | 36.92355 | 5333 ft | 6 kts | 156° |
| 2026-05-07 21:45 | -1.32729 | 36.92376 | 5333 ft | 8 kts | 153° |
| 2026-05-07 21:46 | -1.32766 | 36.92381 | 5333 ft | 4 kts | 193° |
| 2026-05-07 21:46 | -1.32799 | 36.92356 | 5333 ft | 10 kts | 223° |
| 2026-05-07 21:46 | -1.32855 | 36.92297 | 5331 ft | 12 kts | 224° |
| 2026-05-07 21:46 | -1.32926 | 36.92248 | 5331 ft | 12 kts | 202° |
| 2026-05-07 21:47 | -1.32946 | 36.92218 | 5331 ft | 4 kts | 259° |
| 2026-05-07 21:47 | -1.32946 | 36.92187 | 5331 ft | 5 kts | 280° |
| 2026-05-07 21:47 | -1.32943 | 36.92172 | 5331 ft | 0 kts | 282° |
| 2026-05-07 21:47 | -1.32941 | 36.92163 | 5331 ft | 0 kts | 283° |